Time;durP1;ratioP1;P1;durP2;ratioP2;P2;SDS_P1;SDS_P2;PMS_P1;PMS_P2;Temp;Humidity;BMP_temperature;BMP_pressure;BME280_temperature;BME280_humidity;BME280_pressure;Samples;Min_cycle;Max_cycle;Signal;HPM_P1;HPM_P2
2023/08/13 00:01:50;;;;;;;5.90;3.30;;;;;;;13.08;74.95;99238.17;105809;1254;61686;-23
2023/08/13 00:04:17;;;;;;;3.50;1.70;;;;;;;12.86;76.12;99241.61;105703;1260;61222;-22
2023/08/13 00:06:45;;;;;;;5.80;2.00;;;;;;;13.29;76.53;99237.66;105735;1254;75393;-23
2023/08/13 00:09:12;;;;;;;2.10;1.90;;;;;;;13.83;75.28;99236.38;105693;1257;75567;-23
2023/08/13 00:11:39;;;;;;;2.90;2.30;;;;;;;13.90;74.44;99235.36;105693;1254;74695;-23
2023/08/13 00:14:06;;;;;;;3.60;2.10;;;;;;;13.76;74.23;99231.70;105527;1252;61055;-22
2023/08/13 00:16:34;;;;;;;4.50;2.90;;;;;;;13.54;74.60;99230.77;105592;1255;62052;-23
2023/08/13 00:19:01;;;;;;;4.30;2.80;;;;;;;13.31;74.99;99228.58;105811;1254;75501;-22
2023/08/13 00:21:28;;;;;;;3.10;2.40;;;;;;;13.11;75.46;99227.64;105730;1254;76094;-23
2023/08/13 00:23:55;;;;;;;3.30;1.80;;;;;;;12.93;76.18;99227.45;105565;1253;72478;-23
2023/08/13 00:26:22;;;;;;;4.10;2.60;;;;;;;13.33;76.77;99227.05;105602;1254;61119;-23
2023/08/13 00:28:50;;;;;;;2.60;2.10;;;;;;;13.86;75.30;99229.58;105436;1259;61692;-23
2023/08/13 00:31:17;;;;;;;4.20;2.10;;;;;;;13.92;74.14;99227.25;105754;1254;74285;-23
2023/08/13 00:33:45;;;;;;;4.00;2.50;;;;;;;13.77;74.20;99229.36;105596;1254;75276;-23
2023/08/13 00:36:12;;;;;;;8.30;2.70;;;;;;;13.55;74.45;99226.16;105769;1254;74527;-23
2023/08/13 00:38:39;;;;;;;6.40;2.70;;;;;;;13.32;74.71;99224.36;105691;1259;62337;-23
2023/08/13 00:41:07;;;;;;;5.40;2.60;;;;;;;13.11;75.25;99223.78;105837;1257;62187;-23
2023/08/13 00:43:36;;;;;;;5.40;2.20;;;;;;;12.94;75.89;99222.45;105740;1254;73776;-23
2023/08/13 00:46:04;;;;;;;2.40;1.90;;;;;;;13.36;76.20;99222.77;105708;1259;75750;-23
2023/08/13 00:48:31;;;;;;;4.70;2.40;;;;;;;13.89;74.88;99221.65;105579;1256;72701;-23
2023/08/13 00:50:58;;;;;;;3.90;2.30;;;;;;;13.96;73.95;99220.96;105747;1254;61213;-23
2023/08/13 00:53:26;;;;;;;3.60;2.50;;;;;;;13.82;73.87;99219.13;105649;1253;62086;-23
2023/08/13 00:55:53;;;;;;;3.40;2.50;;;;;;;13.57;74.27;99217.40;105726;1254;74555;-23
2023/08/13 00:58:21;;;;;;;3.40;2.60;;;;;;;13.31;74.85;99216.93;105701;1254;75881;-23
2023/08/13 01:00:48;;;;;;;6.50;2.90;;;;;;;13.08;75.60;99218.08;105652;1254;71675;-23
2023/08/13 01:03:16;;;;;;;3.50;2.30;;;;;;;12.91;76.46;99216.06;105458;1257;63606;-23
2023/08/13 01:05:57;;;;;;;4.60;2.10;;;;;;;13.33;76.64;99212.71;105631;1259;61279;-23
2023/08/13 01:08:43;;;;;;;3.30;2.50;;;;;;;13.87;74.94;99218.73;105584;1254;73562;-23
2023/08/13 01:11:32;;;;;;;4.20;2.40;;;;;;;13.83;74.18;99216.81;105699;1255;76246;-22
2023/08/13 01:14:04;;;;;;;3.50;2.40;;;;;;;13.56;74.81;99217.54;105387;1260;74304;-23
2023/08/13 01:16:32;;;;;;;4.60;2.60;;;;;;;13.29;75.51;99216.38;105557;1254;61090;-23
2023/08/13 01:18:59;;;;;;;4.20;2.20;;;;;;;13.08;75.11;99213.25;105462;1259;61856;-23
2023/08/13 01:21:26;;;;;;;6.30;2.60;;;;;;;12.85;74.98;99209.33;105596;1253;73736;-22
2023/08/13 01:23:53;;;;;;;2.70;1.80;;;;;;;12.66;77.25;99213.47;105695;1254;74297;-22
2023/08/13 01:26:21;;;;;;;3.20;2.00;;;;;;;13.07;77.45;99209.11;105795;1254;74710;-23
2023/08/13 01:29:02;;;;;;;4.00;2.60;;;;;;;13.60;75.77;99210.48;105621;1254;62087;-23
2023/08/13 01:31:30;;;;;;;3.90;2.60;;;;;;;13.67;74.60;99208.29;105645;1260;62691;-23
2023/08/13 01:33:58;;;;;;;6.70;2.60;;;;;;;13.51;74.42;99203.27;105679;1254;73962;-23
2023/08/13 01:36:25;;;;;;;3.90;2.50;;;;;;;13.28;74.74;99202.70;105585;1259;73656;-22
2023/08/13 01:38:53;;;;;;;8.50;2.60;;;;;;;13.03;74.54;99201.08;105689;1254;74165;-23
2023/08/13 01:41:20;;;;;;;10.90;2.90;;;;;;;12.80;75.19;99201.56;105494;1254;61131;-23
2023/08/13 01:43:48;;;;;;;5.40;2.90;;;;;;;12.55;75.35;99210.56;105576;1254;61849;-23
2023/08/13 01:46:15;;;;;;;3.40;2.10;;;;;;;12.33;76.91;99209.10;105690;1254;73900;-23
2023/08/13 01:48:42;;;;;;;3.00;2.20;;;;;;;12.76;77.04;99209.55;105791;1254;76208;-23
2023/08/13 01:51:09;;;;;;;4.50;2.30;;;;;;;13.28;75.55;99213.67;105453;1257;71796;-23
2023/08/13 01:53:36;;;;;;;4.20;2.50;;;;;;;13.33;74.68;99215.55;105500;1254;61055;-23
2023/08/13 01:56:03;;;;;;;4.60;2.60;;;;;;;13.12;74.54;99212.39;105559;1254;61245;-23
2023/08/13 01:58:31;;;;;;;8.60;3.30;;;;;;;12.88;75.15;99215.85;105719;1254;75633;-22
2023/08/13 02:01:00;;;;;;;3.80;3.00;;;;;;;12.66;75.67;99218.10;103681;1254;2667622;-23
2023/08/13 02:03:28;;;;;;;5.50;3.00;;;;;;;12.40;76.51;99217.38;105745;1257;72398;-22
2023/08/13 02:05:55;;;;;;;2.80;2.00;;;;;;;12.21;76.50;99221.05;105660;1257;63607;-23
2023/08/13 02:08:23;;;;;;;3.10;1.90;;;;;;;12.65;77.14;99220.80;105523;1257;61162;-23
2023/08/13 02:10:51;;;;;;;4.40;2.30;;;;;;;13.17;74.77;99221.48;105666;1259;72412;-23
2023/08/13 02:13:18;;;;;;;4.60;2.10;;;;;;;13.19;73.03;99223.41;105797;1257;76244;-23
2023/08/13 02:15:45;;;;;;;8.60;3.00;;;;;;;12.97;73.94;99223.41;105551;1256;72732;-23
2023/08/13 02:18:12;;;;;;;6.00;3.40;;;;;;;12.74;76.00;99227.90;105697;1254;61897;-22
2023/08/13 02:20:39;;;;;;;5.10;3.20;;;;;;;12.50;76.85;99229.83;105534;1257;61173;-22
2023/08/13 02:23:06;;;;;;;4.90;3.10;;;;;;;12.27;77.24;99234.31;105672;1254;73771;-22
2023/08/13 02:25:36;;;;;;;3.50;2.20;;;;;;;12.09;78.17;99232.23;105800;1257;76257;-23
2023/08/13 02:28:03;;;;;;;3.00;2.10;;;;;;;12.48;79.15;99234.84;105625;1257;72656;-23
2023/08/13 02:30:30;;;;;;;3.70;2.40;;;;;;;13.02;77.16;99232.56;105730;1257;61783;-23
2023/08/13 02:32:57;;;;;;;5.10;2.70;;;;;;;13.10;76.02;99230.86;105712;1257;61925;-23
2023/08/13 02:35:25;;;;;;;5.10;2.90;;;;;;;12.95;75.71;99225.19;105611;1253;75790;-23
2023/08/13 02:37:52;;;;;;;6.00;3.00;;;;;;;12.73;75.64;99233.02;105687;1259;76159;-23
2023/08/13 02:40:19;;;;;;;7.40;3.30;;;;;;;12.49;76.21;99232.15;105811;1254;74502;-23
2023/08/13 02:42:46;;;;;;;5.00;3.20;;;;;;;12.26;76.98;99232.98;105776;1257;61146;-23
2023/08/13 02:45:14;;;;;;;4.30;2.00;;;;;;;12.08;77.42;99233.19;105789;1257;61173;-23
2023/08/13 02:47:41;;;;;;;4.00;2.50;;;;;;;12.45;77.55;99232.25;105816;1254;73617;-23
2023/08/13 02:50:10;;;;;;;6.70;3.00;;;;;;;12.96;75.96;99234.12;105698;1259;75914;-23
2023/08/13 02:52:37;;;;;;;5.40;2.70;;;;;;;12.97;75.14;99236.16;105706;1254;73415;-23
2023/08/13 02:55:05;;;;;;;8.50;2.80;;;;;;;12.76;75.56;99236.42;105728;1256;61147;-23
2023/08/13 02:57:32;;;;;;;6.20;3.60;;;;;;;12.54;76.04;99237.09;105748;1254;61135;-23
2023/08/13 03:00:04;;;;;;;5.40;3.60;;;;;;;12.29;76.70;99239.37;105738;1254;73186;-23
2023/08/13 03:02:31;;;;;;;5.50;3.40;;;;;;;12.03;77.22;99241.56;105381;1262;75945;-23
2023/08/13 03:04:59;;;;;;;4.20;2.10;;;;;;;11.84;78.08;99242.26;105554;1257;74084;-23
2023/08/13 03:07:26;;;;;;;4.50;2.60;;;;;;;12.23;79.49;99237.80;105617;1257;61103;-23
2023/08/13 03:09:54;;;;;;;5.00;3.10;;;;;;;12.80;78.11;99237.45;105617;1254;62163;-23
2023/08/13 03:12:21;;;;;;;3.90;3.20;;;;;;;12.99;76.52;99240.52;105469;1254;73865;-23
2023/08/13 03:14:48;;;;;;;5.00;3.30;;;;;;;12.91;76.13;99241.38;105607;1254;76298;-23
2023/08/13 03:17:15;;;;;;;5.00;3.40;;;;;;;12.76;76.19;99242.29;105718;1256;72503;-23
2023/08/13 03:27:22;;;;;;;8.00;2.70;;;;;;;12.50;77.15;99243.50;102575;1294;600118;-22
2023/08/13 03:29:49;;;;;;;4.90;2.40;;;;;;;13.40;76.50;99241.92;104825;1272;62700;-22
2023/08/13 03:32:18;;;;;;;3.40;2.70;;;;;;;14.22;73.31;99239.61;104834;1266;61081;-22
2023/08/13 03:34:47;;;;;;;3.50;2.50;;;;;;;14.45;71.37;99238.63;104842;1266;72810;-22
2023/08/13 03:37:15;;;;;;;4.00;3.00;;;;;;;14.50;70.73;99236.10;104768;1272;77173;-22
2023/08/13 03:39:43;;;;;;;3.50;2.90;;;;;;;14.48;70.63;99235.77;104814;1269;72711;-21
2023/08/13 03:42:11;;;;;;;3.90;3.10;;;;;;;14.50;70.44;99234.36;103430;1263;61170;-22
2023/08/13 03:44:41;;;;;;;3.90;2.80;;;;;;;14.40;70.14;99236.50;105529;1256;61238;-22
2023/08/13 03:47:08;;;;;;;4.80;2.80;;;;;;;14.33;70.81;99236.30;105235;1264;74817;-22
2023/08/13 03:49:36;;;;;;;5.40;2.40;;;;;;;14.46;70.91;99236.80;105506;1256;73922;-22
2023/08/13 03:52:06;;;;;;;5.50;2.60;;;;;;;15.17;70.33;99234.73;105457;1262;75316;-21
2023/08/13 03:54:34;;;;;;;3.00;2.40;;;;;;;15.86;68.80;99234.81;105555;1262;61183;-22
2023/08/13 03:57:02;;;;;;;7.50;3.00;;;;;;;16.10;67.87;99231.36;105568;1260;62806;-22
2023/08/13 03:59:30;;;;;;;6.70;3.50;;;;;;;15.99;67.33;99233.92;105531;1262;74864;-22
2023/08/13 04:01:58;;;;;;;5.30;3.30;;;;;;;15.88;68.14;99234.14;105460;1257;74455;-22
2023/08/13 04:04:27;;;;;;;3.80;3.20;;;;;;;15.73;68.77;99233.83;105548;1258;72051;-22
2023/08/13 04:06:55;;;;;;;4.70;3.20;;;;;;;15.54;69.25;99239.36;105518;1257;61602;-22
2023/08/13 04:09:24;;;;;;;5.10;3.50;;;;;;;15.50;69.87;99242.39;105501;1261;62781;-22
2023/08/13 04:11:52;;;;;;;5.90;3.20;;;;;;;15.34;70.25;99241.13;105516;1257;74120;-22
2023/08/13 04:14:19;;;;;;;4.90;2.40;;;;;;;15.35;71.29;99240.60;105385;1257;75322;-22
2023/08/13 04:16:47;;;;;;;6.20;2.20;;;;;;;16.10;70.40;99239.60;105184;1257;73972;-23
2023/08/13 04:19:16;;;;;;;3.80;2.90;;;;;;;16.76;67.44;99237.29;105052;1257;61156;-22
2023/08/13 04:21:43;;;;;;;5.10;3.30;;;;;;;16.68;66.07;99237.39;105002;1257;61154;-23
2023/08/13 04:24:11;;;;;;;6.30;3.60;;;;;;;16.49;67.47;99242.73;105213;1257;73105;-23
2023/08/13 04:26:39;;;;;;;5.90;3.30;;;;;;;16.66;67.48;99244.11;105081;1264;76229;-23
2023/08/13 04:29:08;;;;;;;6.80;3.40;;;;;;;16.70;67.12;99245.41;105122;1257;74637;-23
2023/08/13 04:31:37;;;;;;;5.30;3.40;;;;;;;16.70;67.21;99246.17;105101;1262;62713;-23
2023/08/13 04:34:05;;;;;;;5.90;3.10;;;;;;;16.70;66.90;99248.28;105060;1262;62791;-23
2023/08/13 04:36:36;;;;;;;5.50;3.70;;;;;;;16.65;67.30;99246.98;105372;1253;74590;-23
2023/08/13 04:39:08;;;;;;;6.50;3.80;;;;;;;16.34;67.99;99247.52;105489;1258;77424;-23
2023/08/13 04:41:37;;;;;;;5.30;3.50;;;;;;;16.28;68.85;99248.52;105626;1255;75519;-23
2023/08/13 04:44:05;;;;;;;6.80;3.30;;;;;;;16.29;69.62;99246.25;105329;1253;61104;-22
2023/08/13 04:46:33;;;;;;;4.80;2.40;;;;;;;16.58;68.93;99250.67;105663;1253;62734;-22
2023/08/13 04:49:01;;;;;;;5.20;2.80;;;;;;;17.49;67.91;99247.56;105499;1258;76146;-23
2023/08/13 04:51:30;;;;;;;7.80;2.90;;;;;;;18.44;64.46;99246.68;105436;1258;77118;-23
2023/08/13 04:53:58;;;;;;;3.60;2.70;;;;;;;18.79;63.11;99240.95;105582;1258;74193;-23
2023/08/13 04:56:28;;;;;;;4.90;3.40;;;;;;;18.79;62.66;99241.98;105621;1254;61132;-23
2023/08/13 04:58:56;;;;;;;4.90;2.90;;;;;;;18.70;62.82;99246.27;105567;1253;61120;-23
2023/08/13 05:01:24;;;;;;;4.50;3.10;;;;;;;18.59;62.67;99249.66;105572;1253;74082;-23
2023/08/13 05:03:54;;;;;;;6.50;3.40;;;;;;;18.38;62.74;99250.21;105630;1253;77213;-23
2023/08/13 05:06:22;;;;;;;4.50;3.10;;;;;;;18.17;63.00;99250.02;105474;1258;74596;-22
2023/08/13 05:08:51;;;;;;;6.00;3.70;;;;;;;18.01;63.92;99249.70;105430;1258;63052;-23
2023/08/13 05:11:20;;;;;;;5.10;3.40;;;;;;;17.98;64.51;99253.88;105438;1253;62557;-23
2023/08/13 05:13:48;;;;;;;6.50;3.30;;;;;;;18.18;64.32;99255.02;105388;1254;73972;-23
2023/08/13 05:16:17;;;;;;;5.30;3.30;;;;;;;18.41;64.03;99254.69;105422;1253;75398;-23
2023/08/13 05:18:45;;;;;;;4.70;3.40;;;;;;;18.50;63.45;99253.64;105633;1258;73462;-23
2023/08/13 05:21:15;;;;;;;6.20;3.60;;;;;;;18.50;63.63;99252.02;105679;1254;62817;-22
2023/08/13 05:23:43;;;;;;;4.40;2.90;;;;;;;18.44;64.54;99254.84;105669;1253;62276;-22
2023/08/13 05:26:13;;;;;;;4.60;3.40;;;;;;;18.70;63.71;99256.89;105572;1254;75724;-22
2023/08/13 05:28:41;;;;;;;4.60;3.20;;;;;;;18.81;63.67;99256.70;105630;1253;76291;-23
2023/08/13 05:31:10;;;;;;;3.70;2.90;;;;;;;19.08;63.26;99255.23;105373;1258;75303;-23
2023/08/13 05:33:38;;;;;;;3.50;2.70;;;;;;;19.26;62.68;99254.49;105483;1253;61826;-23
2023/08/13 05:36:06;;;;;;;4.80;3.10;;;;;;;19.42;62.35;99257.96;105443;1258;63125;-23
2023/08/13 05:38:34;;;;;;;5.10;3.10;;;;;;;19.56;61.38;99257.75;105421;1258;74418;-22
2023/08/13 05:41:04;;;;;;;5.90;3.30;;;;;;;19.65;60.92;99259.29;105418;1256;77336;-23
2023/08/13 05:43:32;;;;;;;4.30;3.00;;;;;;;19.69;60.76;99257.63;105359;1258;75396;-23
2023/08/13 05:45:59;;;;;;;7.30;3.50;;;;;;;19.70;60.71;99259.96;105370;1253;62947;-23
2023/08/13 05:48:27;;;;;;;5.40;3.30;;;;;;;19.63;60.98;99252.57;105424;1258;63070;-23
2023/08/13 05:50:55;;;;;;;6.20;3.20;;;;;;;19.50;61.00;99252.91;105376;1258;74422;-23
2023/08/13 05:53:23;;;;;;;9.80;3.40;;;;;;;19.39;61.67;99260.61;105402;1253;76711;-23
2023/08/13 05:55:52;;;;;;;5.20;3.20;;;;;;;19.24;62.62;99258.42;105490;1258;72100;-23
2023/08/13 05:58:20;;;;;;;7.20;3.20;;;;;;;19.25;63.12;99255.98;105558;1261;61058;-23
2023/08/13 06:00:48;;;;;;;5.30;3.00;;;;;;;19.32;62.71;99261.34;105644;1259;62926;-23
2023/08/13 06:03:16;;;;;;;4.30;3.00;;;;;;;19.34;62.64;99259.34;105666;1258;71846;-22
2023/08/13 06:05:45;;;;;;;4.40;3.20;;;;;;;19.42;62.00;99257.89;105664;1259;74453;-22
2023/08/13 06:08:13;;;;;;;5.80;2.90;;;;;;;19.43;61.92;99254.33;105611;1253;73533;-23
2023/08/13 06:10:41;;;;;;;4.40;2.70;;;;;;;19.53;61.45;99255.13;105190;1256;62850;-23
2023/08/13 06:13:09;;;;;;;4.50;3.10;;;;;;;19.60;61.23;99253.55;105420;1253;61873;-23
2023/08/13 06:15:37;;;;;;;5.70;2.80;;;;;;;19.68;59.79;99256.05;105630;1255;74630;-22
2023/08/13 06:18:05;;;;;;;3.50;2.50;;;;;;;19.72;58.70;99258.98;105589;1253;77094;-23
2023/08/13 06:20:33;;;;;;;3.80;2.60;;;;;;;19.78;59.26;99261.91;105189;1261;74678;-23
2023/08/13 06:23:01;;;;;;;6.00;2.60;;;;;;;19.86;58.99;99262.53;105331;1253;61703;-23
2023/08/13 06:25:29;;;;;;;4.70;3.20;;;;;;;19.93;59.44;99260.13;105461;1258;61634;-23
2023/08/13 06:27:57;;;;;;;5.30;3.00;;;;;;;20.03;59.08;99261.16;105659;1253;73144;-22
2023/08/13 06:30:24;;;;;;;4.90;3.00;;;;;;;20.12;57.30;99267.42;105432;1259;75785;-22
2023/08/13 06:32:52;;;;;;;4.10;2.60;;;;;;;20.23;57.77;99269.30;105365;1253;71488;-24
2023/08/13 06:35:20;;;;;;;5.40;2.50;;;;;;;20.37;57.03;99268.96;105408;1258;61237;-23
2023/08/13 06:37:48;;;;;;;6.00;2.70;;;;;;;20.48;57.03;99270.30;105425;1253;61471;-23
2023/08/13 06:40:29;;;;;;;5.80;2.60;;;;;;;20.62;57.13;99268.27;105355;1253;74276;-23
2023/08/13 06:42:57;;;;;;;4.40;2.40;;;;;;;20.77;56.32;99268.05;105529;1253;75579;-23
2023/08/13 06:45:27;;;;;;;3.30;2.60;;;;;;;20.98;55.30;99267.98;105474;1254;73185;-23
2023/08/13 06:47:56;;;;;;;3.30;2.30;;;;;;;21.18;54.49;99268.00;105275;1257;62674;-23
2023/08/13 06:50:25;;;;;;;5.50;2.50;;;;;;;21.31;54.04;99267.42;105146;1253;62756;-23
2023/08/13 06:52:53;;;;;;;4.90;2.50;;;;;;;21.41;52.86;99268.21;105190;1260;75177;-23
2023/08/13 06:55:21;;;;;;;6.90;2.20;;;;;;;21.65;52.18;99267.07;105369;1253;77088;-23
2023/08/13 06:57:49;;;;;;;5.70;2.50;;;;;;;21.87;52.21;99262.91;105368;1258;73541;-23
2023/08/13 07:00:19;;;;;;;5.10;2.60;;;;;;;22.00;50.87;99263.45;105332;1256;61357;-23
2023/08/13 07:02:55;;;;;;;7.60;2.90;;;;;;;22.08;50.60;99269.11;105443;1253;61214;-23
2023/08/13 07:05:23;;;;;;;4.40;2.70;;;;;;;22.07;48.32;99267.33;105391;1253;75707;-23
2023/08/13 07:07:51;;;;;;;4.40;3.00;;;;;;;22.09;49.06;99267.95;105344;1253;74498;-23
2023/08/13 07:10:19;;;;;;;3.30;2.40;;;;;;;22.09;49.09;99268.11;105424;1258;74723;-23
2023/08/13 07:12:47;;;;;;;5.50;2.60;;;;;;;22.15;48.60;99270.42;105394;1254;61616;-23
2023/08/13 07:15:15;;;;;;;5.00;2.40;;;;;;;22.25;47.76;99267.90;105654;1253;62778;-23
2023/08/13 07:17:43;;;;;;;3.50;2.10;;;;;;;22.31;48.71;99268.77;105661;1253;71875;-23
2023/08/13 07:20:13;;;;;;;5.10;2.00;;;;;;;22.47;48.17;99272.04;105601;1258;77153;-23
2023/08/13 07:22:43;;;;;;;3.00;2.10;;;;;;;22.64;47.01;99274.08;105339;1253;71591;-23
2023/08/13 07:25:14;;;;;;;3.30;2.10;;;;;;;22.78;47.14;99275.67;105160;1261;61165;-23
2023/08/13 07:27:43;;;;;;;2.10;1.90;;;;;;;22.88;46.99;99277.21;105144;1253;61143;-23
2023/08/13 07:30:11;;;;;;;6.10;1.80;;;;;;;22.96;46.79;99275.30;105201;1257;74183;-23
2023/08/13 07:32:42;;;;;;;2.60;2.10;;;;;;;23.11;47.49;99276.70;105309;1260;77081;-22
2023/08/13 07:35:12;;;;;;;3.10;2.30;;;;;;;23.26;46.57;99277.30;105264;1256;75507;-23
2023/08/13 07:37:40;;;;;;;3.40;2.10;;;;;;;23.40;45.22;99271.02;105395;1254;61102;-23
2023/08/13 07:40:11;;;;;;;5.10;1.90;;;;;;;23.60;44.43;99276.17;105224;1255;61128;-23
2023/08/13 07:42:40;;;;;;;4.30;2.20;;;;;;;23.78;44.84;99279.12;105560;1253;72932;-23
2023/08/13 07:45:10;;;;;;;5.30;1.80;;;;;;;23.91;44.55;99276.64;105299;1261;76412;-23
2023/08/13 07:47:39;;;;;;;2.60;1.90;;;;;;;24.08;43.75;99279.42;105374;1253;74028;-23
2023/08/13 07:50:08;;;;;;;4.90;1.50;;;;;;;24.18;42.21;99271.83;105380;1254;61844;-23
2023/08/13 07:52:36;;;;;;;4.10;2.10;;;;;;;24.31;41.93;99276.33;105473;1253;61055;-22
2023/08/13 07:55:05;;;;;;;2.60;1.80;;;;;;;24.39;42.62;99274.45;105406;1253;76557;-22
2023/08/13 07:57:33;;;;;;;3.50;1.80;;;;;;;24.53;41.27;99270.52;105405;1261;73205;-22
2023/08/13 08:00:02;;;;;;;3.30;1.50;;;;;;;24.62;40.88;99270.48;105513;1253;74709;-22
2023/08/13 08:02:39;;;;;;;2.60;1.90;;;;;;;24.75;41.61;99276.33;105181;1261;61982;-23
2023/08/13 08:05:08;;;;;;;2.50;1.70;;;;;;;24.81;39.93;99268.98;105185;1253;62712;-22
2023/08/13 08:07:37;;;;;;;2.20;1.60;;;;;;;24.85;39.53;99272.56;105429;1253;74050;-22
2023/08/13 08:10:07;;;;;;;4.00;1.80;;;;;;;24.99;39.54;99273.51;105357;1253;76173;-22
2023/08/13 08:12:35;;;;;;;2.80;1.60;;;;;;;25.09;38.78;99272.06;105286;1261;75558;-22
2023/08/13 08:15:07;;;;;;;4.00;1.50;;;;;;;25.01;37.80;99273.81;105370;1258;61177;-22
2023/08/13 08:17:36;;;;;;;2.30;1.60;;;;;;;24.97;38.51;99272.82;105273;1261;61150;-23
2023/08/13 08:20:06;;;;;;;2.40;1.60;;;;;;;25.10;38.52;99270.27;105476;1253;73873;-22
2023/08/13 08:22:34;;;;;;;6.00;1.70;;;;;;;25.31;37.96;99269.56;105672;1253;76149;-23
2023/08/13 08:25:09;;;;;;;3.80;1.90;;;;;;;25.36;36.93;99267.89;105706;1253;71833;-23
2023/08/13 08:27:37;;;;;;;3.70;1.70;;;;;;;25.37;37.17;99266.19;105686;1261;61178;-23
2023/08/13 08:30:05;;;;;;;4.70;1.60;;;;;;;25.59;37.39;99263.88;105471;1254;61211;-22
2023/08/13 08:32:35;;;;;;;2.10;1.60;;;;;;;25.80;37.22;99264.99;105213;1261;73093;-22
2023/08/13 08:35:04;;;;;;;1.60;1.30;;;;;;;25.93;36.50;99261.17;105444;1253;74483;-23
2023/08/13 08:37:32;;;;;;;7.50;2.10;;;;;;;25.84;36.03;99256.41;105409;1256;74255;-23
2023/08/13 08:40:00;;;;;;;2.50;1.40;;;;;;;25.65;35.78;99262.83;105450;1253;61819;-23
2023/08/13 08:42:28;;;;;;;3.00;1.40;;;;;;;25.68;35.54;99263.50;105434;1253;61374;-23
2023/08/13 08:44:56;;;;;;;3.20;1.60;;;;;;;25.82;34.97;99265.05;105337;1258;75079;-23
2023/08/13 08:47:24;;;;;;;2.30;1.50;;;;;;;26.06;35.33;99259.14;105389;1260;77248;-24
2023/08/13 08:49:54;;;;;;;4.20;1.60;;;;;;;26.20;36.21;99257.98;105208;1261;75529;-23
2023/08/13 08:52:21;;;;;;;2.00;1.70;;;;;;;26.18;36.51;99264.55;105147;1257;62834;-24
2023/08/13 08:54:49;;;;;;;3.50;1.30;;;;;;;26.29;35.83;99267.25;105422;1253;61005;-24
2023/08/13 08:57:17;;;;;;;5.70;1.90;;;;;;;26.44;36.09;99268.89;105212;1253;76672;-23
2023/08/13 08:59:45;;;;;;;3.70;1.50;;;;;;;26.56;36.14;99269.72;105353;1258;75538;-23
2023/08/13 09:02:13;;;;;;;2.80;1.70;;;;;;;26.51;35.23;99267.06;105471;1253;74034;-24
2023/08/13 09:04:43;;;;;;;2.50;1.60;;;;;;;26.45;35.05;99265.58;105411;1253;61868;-23
2023/08/13 09:07:10;;;;;;;3.10;1.30;;;;;;;26.35;34.63;99268.91;105305;1253;62873;-24
2023/08/13 09:09:43;;;;;;;1.50;1.10;;;;;;;26.48;34.97;99265.44;105453;1258;73946;-23
2023/08/13 09:12:11;;;;;;;3.70;1.80;;;;;;;26.59;34.86;99261.51;105459;1253;75372;-24
2023/08/13 09:14:39;;;;;;;3.10;1.60;;;;;;;26.86;35.08;99264.27;105379;1253;74114;-24
2023/08/13 09:17:10;;;;;;;3.00;1.80;;;;;;;26.86;35.07;99260.98;105347;1256;62765;-23
2023/08/13 09:19:37;;;;;;;3.50;1.90;;;;;;;26.82;34.83;99265.02;105154;1261;61128;-24
2023/08/13 09:22:06;;;;;;;3.70;1.60;;;;;;;26.96;35.28;99266.09;105696;1253;73889;-23
2023/08/13 09:24:35;;;;;;;4.00;1.70;;;;;;;27.25;36.00;99262.95;105622;1253;76731;-24
2023/08/13 09:27:04;;;;;;;4.00;1.80;;;;;;;27.26;35.60;99265.06;105380;1255;72878;-24
2023/08/13 09:29:32;;;;;;;2.60;1.50;;;;;;;27.15;35.10;99262.61;105192;1254;61181;-23
2023/08/13 09:32:01;;;;;;;2.90;1.70;;;;;;;27.22;34.00;99260.86;105335;1254;61070;-24
2023/08/13 09:34:30;;;;;;;5.90;1.40;;;;;;;26.98;34.39;99265.45;105323;1256;72030;-23
2023/08/13 09:36:58;;;;;;;2.50;1.60;;;;;;;27.42;34.63;99264.14;105494;1256;74434;-24
2023/08/13 09:39:30;;;;;;;2.20;1.60;;;;;;;27.58;34.60;99265.58;105655;1256;75412;-24
2023/08/13 09:41:59;;;;;;;5.90;1.50;;;;;;;27.53;34.65;99265.48;105462;1262;62832;-24
2023/08/13 09:44:27;;;;;;;2.10;1.60;;;;;;;27.56;33.37;99269.47;105616;1260;61114;-23
2023/08/13 09:47:01;;;;;;;4.60;1.60;;;;;;;27.66;33.42;99265.60;105431;1261;75070;-24
2023/08/13 09:49:32;;;;;;;;;;;;;;;27.74;33.34;99264.02;105431;1256;74476;-24
2023/08/13 09:52:04;;;;;;;4.70;1.40;;;;;;;27.83;34.16;99264.81;105478;1260;71502;-24
2023/08/13 09:54:52;;;;;;;1.80;1.40;;;;;;;28.18;32.10;99261.91;105299;1259;61235;-23
2023/08/13 09:57:21;;;;;;;4.40;1.40;;;;;;;28.58;32.38;99259.88;105476;1256;60985;-24
2023/08/13 09:59:50;;;;;;;6.20;1.70;;;;;;;28.44;32.58;99264.80;105452;1256;73893;-24
2023/08/13 10:02:18;;;;;;;4.40;1.60;;;;;;;28.15;32.15;99265.29;105615;1256;75553;-23
2023/08/13 10:04:46;;;;;;;4.50;1.50;;;;;;;28.21;32.08;99275.21;105669;1256;72239;-23
2023/08/13 10:07:14;;;;;;;2.40;1.30;;;;;;;28.27;31.90;99272.81;105394;1256;61129;-23
2023/08/13 10:09:42;;;;;;;2.40;1.60;;;;;;;28.42;31.73;99273.34;105160;1260;61227;-23
2023/08/13 10:12:10;;;;;;;3.00;1.20;;;;;;;28.35;31.67;99270.89;105338;1260;73139;-24
2023/08/13 10:14:38;;;;;;;2.60;1.30;;;;;;;28.25;31.72;99271.01;105633;1260;74499;-24
2023/08/13 10:17:06;;;;;;;2.50;1.50;;;;;;;28.26;31.32;99272.96;105499;1256;74632;-24
2023/08/13 10:19:37;;;;;;;2.20;1.40;;;;;;;28.29;30.71;99273.73;105290;1260;61049;-24
2023/08/13 10:22:05;;;;;;;4.80;1.30;;;;;;;28.39;31.35;99268.83;105136;1263;61952;-24
2023/08/13 10:24:33;;;;;;;1.90;1.40;;;;;;;28.45;31.51;99269.16;105090;1264;72720;-24
2023/08/13 10:27:00;;;;;;;2.50;1.40;;;;;;;28.69;30.38;99272.61;105466;1253;77091;-24
2023/08/13 10:29:36;;;;;;;2.10;1.30;;;;;;;28.65;30.27;99271.35;105509;1261;74341;-24
2023/08/13 10:32:15;;;;;;;1.40;1.00;;;;;;;28.75;30.28;99267.53;105304;1253;61130;-24
2023/08/13 10:34:47;;;;;;;3.00;1.50;;;;;;;28.76;29.90;99264.81;105258;1260;61107;-24
2023/08/13 10:37:17;;;;;;;1.50;1.40;;;;;;;28.95;29.60;99264.00;105366;1253;73881;-24
2023/08/13 10:40:08;;;;;;;4.70;1.40;;;;;;;29.25;29.94;99267.93;105648;1253;74405;-24
2023/08/13 10:42:36;;;;;;;2.70;1.40;;;;;;;29.05;30.15;99263.52;105661;1261;72354;-23
2023/08/13 10:45:05;;;;;;;3.00;1.30;;;;;;;28.81;29.94;99262.55;105610;1259;61164;-24
2023/08/13 10:47:40;;;;;;;2.70;1.40;;;;;;;28.10;30.14;99269.66;105708;1258;63086;-24
2023/08/13 10:50:34;;;;;;;2.90;1.60;;;;;;;27.92;30.59;99270.81;105247;1262;72645;-23
2023/08/13 10:53:11;;;;;;;5.90;1.50;;;;;;;28.39;30.84;99271.39;105510;1253;74440;-23
2023/08/13 10:55:47;;;;;;;2.20;1.10;;;;;;;28.78;29.50;99263.41;105576;1260;76905;-23
2023/08/13 10:58:28;;;;;;;2.40;1.30;;;;;;;28.80;29.86;99262.55;105646;1261;61139;-24
2023/08/13 11:01:09;;;;;;;2.00;1.40;;;;;;;28.39;29.96;99261.53;105510;1253;61176;-24
2023/08/13 11:03:44;;;;;;;4.40;1.60;;;;;;;28.31;31.10;99265.89;105170;1253;76287;-23
2023/08/13 11:06:16;;;;;;;4.60;1.50;;;;;;;28.34;30.88;99264.60;105244;1253;78386;-23
2023/08/13 11:08:46;;;;;;;2.40;1.20;;;;;;;28.06;30.52;99262.13;105271;1253;76665;-23
2023/08/13 11:11:16;;;;;;;2.90;1.60;;;;;;;28.00;30.39;99259.75;105274;1261;61175;-23
2023/08/13 11:13:44;;;;;;;3.00;1.10;;;;;;;28.16;29.59;99256.14;105413;1253;62527;-23
2023/08/13 11:16:13;;;;;;;1.50;1.10;;;;;;;28.35;30.19;99253.00;105368;1253;76279;-24
2023/08/13 11:19:23;;;;;;;1.70;1.10;;;;;;;28.25;30.31;99251.04;102643;1294;600885;-22
2023/08/13 11:21:51;;;;;;;2.20;1.30;;;;;;;28.21;29.85;99251.38;104828;1271;61318;-22
2023/08/13 11:24:21;;;;;;;2.00;1.30;;;;;;;28.27;30.58;99249.91;105266;1263;61509;-22
2023/08/13 11:26:49;;;;;;;2.50;1.40;;;;;;;28.31;31.05;99249.17;105233;1258;74920;-22
2023/08/13 11:29:23;;;;;;;4.50;1.40;;;;;;;28.03;31.40;99248.21;105265;1266;76806;-22
2023/08/13 11:31:51;;;;;;;3.20;1.60;;;;;;;27.94;31.30;99243.27;103232;1263;2715729;-23
2023/08/13 11:34:19;;;;;;;2.90;1.40;;;;;;;28.03;31.45;99239.98;105270;1261;63962;-22
2023/08/13 11:36:52;;;;;;;2.40;1.30;;;;;;;27.99;31.25;99239.98;105632;1258;63867;-22
2023/08/13 11:39:19;;;;;;;2.20;1.20;;;;;;;28.07;30.38;99233.05;105510;1261;74939;-22
2023/08/13 11:41:47;;;;;;;2.20;1.10;;;;;;;27.96;30.26;99232.86;105284;1263;74553;-23